Bei Facebook empfehlenBei Twitter postenGoogle plusPinterest

Das Wetter im Erzgebirge am 16.12.2015

Wetter und Klima am 16.12.2015 Holzhau im Erzgebirge (630m ü.NN)
Letzte gemessene Temperatur und Uhrzeit der Messung23:45:00 Uhr4.40 °C
Temperatur (Maximum / Höchstwert) und Uhrzeit der Messung12:15:00 Uhr7.10 °C
Temperatur (Minimum / Tiefstwert) und Uhrzeit der Messung03:45:002.10 °C
Errechneter Absolutwert der Temperaturschwankungen zwischen Tmin und Tmax des Tages5.00 K
Errechnete Tagesmitteltemperatur4.00729 °C
Gesamt - Niederschlag des Tages (in flüssiger Form)0.00 Liter / m²
Luftdruck (Maximum / Höchstwert) und Zeitpunkt der Messung09:45:00 Uhr1023.30 hPa
Luftdruck (Minimum / Tiefstwert) und Zeitpunkt der Messung23:45:00 Uhr1021.70 hPa
Errechneter Absolutwert der Luftdruckschwankungen des Tages1.60 hPa
Höchste gemessene Windgeschwindigkeit und Uhrzeit der Messung19:00:00 Uhr14.04 km/h
Errechnete Windhäufigkeit in Relation zu den Messwerten des Tages28.12500 %
Niedrigste Windkühle (Windchill) und Zeitpunkt der Messung19:00:00 Uhr0.40 °C
Taupunkt (Maximum / Höchstwert) und Uhrzeit der Messung12:00:00 Uhr6.40 °C
Taupunkt (Minimum / Tiefstwert) und Uhrzeit der Messung03:45:001.20 °C
Anzahl der automatisch eingelesenen Messwerte 96

Detaillierte Wetter- und Klima- Messwerte für den 16.12.2015 in Holzhau im Erzgebirge (630m ü.NN)
ZeitTemperaturLuftdruckRel. LuftfeuchteWindWindrichtungWindchillTaupunktNiederschlag l/m²
23:45:004.40 °C1021.70 hPa95.00 %8.64 km/hONO2.30 °C3.70 °C 
23:30:004.30 °C1022.00 hPa95.00 %3.60 °C 
23:15:004.30 °C1021.90 hPa95.00 %2.52 km/hSSW4.30 °C3.60 °C 
23:00:004.10 °C1022.10 hPa95.00 %3.40 °C 
22:45:003.90 °C1022.10 hPa94.00 %5.40 km/hSSO2.70 °C3.00 °C 
22:30:003.80 °C1022.10 hPa94.00 %1.44 km/hOSO3.80 °C2.90 °C 
22:15:003.80 °C1022.20 hPa94.00 %2.90 °C 
22:00:003.80 °C1022.20 hPa94.00 %2.90 °C 
21:45:003.90 °C1022.20 hPa94.00 %4.68 km/hOSO3.90 °C3.00 °C 
21:30:004.10 °C1022.30 hPa94.00 %3.20 °C 
21:15:004.10 °C1022.30 hPa94.00 %3.20 °C 
21:00:004.20 °C1022.30 hPa94.00 %3.30 °C 
20:45:004.10 °C1022.10 hPa94.00 %3.20 °C 
20:30:004.10 °C1022.20 hPa94.00 %3.20 °C 
20:15:004.10 °C1022.20 hPa94.00 %1.80 km/hSSO4.10 °C3.20 °C 
20:00:004.10 °C1022.30 hPa94.00 %7.92 km/hS2.10 °C3.20 °C 
19:45:004.10 °C1022.30 hPa94.00 %5.04 km/hSO3.00 °C3.20 °C 
19:30:003.90 °C1022.40 hPa94.00 %3.00 °C 
19:15:003.90 °C1022.40 hPa94.00 %3.60 km/hSO3.90 °C3.00 °C 
19:00:003.80 °C1022.40 hPa93.00 %14.04 km/hSSW0.40 °C2.80 °C 
18:45:003.60 °C1022.20 hPa93.00 %7.20 km/hSSO1.70 °C2.60 °C 
18:30:003.50 °C1022.20 hPa93.00 %2.50 °C 
18:15:003.60 °C1022.10 hPa93.00 %1.08 km/hO3.60 °C2.60 °C 
18:00:003.80 °C1022.20 hPa93.00 %2.80 °C 
17:45:003.70 °C1022.40 hPa93.00 %2.70 °C 
17:30:003.60 °C1022.60 hPa93.00 %2.60 °C 
17:15:003.60 °C1022.50 hPa92.00 %2.40 °C 
17:00:003.60 °C1022.60 hPa92.00 %2.40 °C 
16:45:003.70 °C1022.80 hPa92.00 %2.50 °C 
16:30:003.80 °C1022.90 hPa92.00 %2.60 °C 
16:15:003.90 °C1023.00 hPa92.00 %9.00 km/hSO1.60 °C2.70 °C 
16:00:004.20 °C1023.00 hPa92.00 %3.00 °C 
15:45:004.40 °C1023.00 hPa92.00 %3.20 °C 
15:30:004.60 °C1022.90 hPa91.00 %3.30 °C 
15:15:004.80 °C1022.90 hPa91.00 %3.96 km/hOSO4.80 °C3.50 °C 
15:00:004.90 °C1022.80 hPa91.00 %3.60 °C 
14:45:005.30 °C1022.70 hPa91.00 %4.32 km/hS5.30 °C4.00 °C 
14:30:005.40 °C1022.40 hPa91.00 %4.10 °C 
14:15:005.80 °C1022.70 hPa91.00 %3.96 km/hO5.80 °C4.40 °C 
14:00:006.10 °C1022.80 hPa91.00 %4.70 °C 
13:45:006.60 °C1022.80 hPa92.00 %5.40 °C 
13:30:006.50 °C1022.70 hPa92.00 %5.30 °C 
13:15:006.50 °C1022.50 hPa92.00 %5.30 °C 
13:00:006.70 °C1022.60 hPa93.00 %5.70 °C 
12:45:006.60 °C1022.80 hPa93.00 %5.60 °C 
12:30:006.70 °C1022.80 hPa93.00 %5.70 °C 
12:15:007.10 °C1022.80 hPa94.00 %3.24 km/hNO7.10 °C6.20 °C 
12:00:007.10 °C1022.80 hPa95.00 %3.96 km/hSO7.10 °C6.40 °C 
11:45:006.30 °C1023.00 hPa95.00 %5.60 °C 
11:30:005.90 °C1023.00 hPa95.00 %5.20 °C 
11:15:005.60 °C1023.20 hPa95.00 %4.90 °C 
11:00:005.40 °C1023.10 hPa96.00 %7.92 km/hSO3.60 °C4.80 °C 
10:45:004.90 °C1023.10 hPa96.00 %4.30 °C 
10:30:004.50 °C1023.20 hPa96.00 %3.90 °C 
10:15:003.90 °C1023.20 hPa95.00 %7.20 km/hOSO2.10 °C3.20 °C 
10:00:003.40 °C1023.20 hPa95.00 %1.80 km/hOSO3.40 °C2.70 °C 
09:45:003.10 °C1023.30 hPa95.00 %1.80 km/hOSO3.10 °C2.40 °C 
09:30:003.10 °C1023.30 hPa95.00 %2.40 °C 
09:15:002.90 °C1023.30 hPa95.00 %2.20 °C 
09:00:002.80 °C1023.20 hPa95.00 %2.10 °C 
08:45:002.80 °C1023.30 hPa95.00 %2.10 °C 
08:30:002.70 °C1023.10 hPa95.00 %2.00 °C 
08:15:002.70 °C1023.20 hPa95.00 %2.00 °C 
08:00:002.70 °C1023.20 hPa95.00 %7.20 km/hOSO0.70 °C2.00 °C 
07:45:002.80 °C1023.00 hPa95.00 %2.10 °C 
07:30:002.90 °C1023.00 hPa95.00 %1.44 km/hONO2.90 °C2.20 °C 
07:15:003.00 °C1022.90 hPa95.00 %2.30 °C 
07:00:003.10 °C1022.80 hPa95.00 %2.40 °C 
06:45:003.20 °C1022.60 hPa95.00 %2.50 °C 
06:30:003.40 °C1022.60 hPa95.00 %6.12 km/hSO1.80 °C2.70 °C 
06:15:003.60 °C1022.50 hPa95.00 %2.90 °C 
06:00:003.50 °C1022.60 hPa95.00 %2.80 °C 
05:45:003.50 °C1022.60 hPa95.00 %2.80 °C 
05:30:003.40 °C1022.40 hPa95.00 %2.70 °C 
05:15:003.40 °C1022.70 hPa95.00 %2.70 °C 
05:00:003.30 °C1022.80 hPa95.00 %2.60 °C 
04:45:003.20 °C1022.60 hPa95.00 %2.16 km/hOSO3.20 °C2.50 °C 
04:30:002.90 °C1022.50 hPa95.00 %2.20 °C 
04:15:002.60 °C1022.50 hPa95.00 %3.60 km/hOSO2.60 °C1.90 °C 
04:00:002.30 °C1022.40 hPa94.00 %1.40 °C 
03:45:002.10 °C1022.40 hPa94.00 %1.20 °C 
03:30:002.30 °C1022.40 hPa94.00 %1.40 °C 
03:15:002.50 °C1022.50 hPa94.00 %1.60 °C 
03:00:002.90 °C1022.60 hPa94.00 %2.00 °C 
02:45:003.30 °C1022.80 hPa95.00 %2.60 °C 
02:30:003.50 °C1022.60 hPa95.00 %2.80 °C 
02:15:003.50 °C1022.40 hPa95.00 %2.80 °C 
02:00:003.50 °C1022.30 hPa95.00 %2.80 °C 
01:45:003.50 °C1022.10 hPa95.00 %2.80 °C 
01:30:003.50 °C1022.20 hPa95.00 %2.80 °C 
01:15:003.40 °C1022.10 hPa95.00 %2.70 °C 
01:00:003.40 °C1022.20 hPa95.00 %2.70 °C 
00:45:003.50 °C1022.10 hPa95.00 %2.80 °C 
00:30:003.50 °C1022.30 hPa94.00 %2.60 °C 
00:15:003.50 °C1022.20 hPa94.00 %2.60 °C 
00:00:003.50 °C1022.20 hPa94.00 %2.60 °C 

Permanenter Link zu dieser Seite: Wetter im Erzgebirge am 16.12.2015
Performance-Info: Die Erstellung der Seite / Statistik(en) / Tabelle(n) erforderte 5 Datenbankserver-Abfrage(n) und dauerte 98 Millisekunden. (Dieser Messwert ist von der Gesamt-Auslastung des Servers abhängig.)
Erzgebirge - Wetter | Erzgebirge - Wetter (Mobilgeräte) | Komplette Klimadatenbank